Sunday, December 16, 2018, 10:29 AM GMT
Back to Local

CYKZ, Toronto Buttonville

Location: , , Canada Lat: 43.867
Local Time: 10:29 AM GMT (10:29 GMT) Lon: -79.367
Time Zone: GMT Elev: 649 ft

Show me the last for .
Show Decoded

2018-12-16 10:00 METAR CYKZ 161000Z 02005KT 15SM OVC200 M01/M03 A3010 RMK CS8 SLP202 =
2018-12-16 09:00 METAR CYKZ 160900Z 01004KT 15SM BKN210 M02/M03 A3012 RMK CI6 SLP208 =
2018-12-16 08:00 METAR CYKZ 160800Z 03003KT 15SM BKN210 M02/M03 A3012 RMK CI7 SLP208 =
2018-12-16 07:00 METAR CYKZ 160700Z 10003KT 15SM FEW200 M01/M03 A3015 RMK CI2 SLP219 =
2018-12-16 06:00 METAR CYKZ 160600Z 08004KT 15SM BKN210 M01/M02 A3015 RMK CI6 SLP220 =
2018-12-16 05:00 METAR CYKZ 160500Z 07003KT 15SM BKN220 M01/M02 A3019 RMK CI6 SLP231 =
2018-12-16 04:00 METAR CYKZ 160400Z VRB02KT 15SM BKN220 00/M02 A3022 RMK CS7 SLP242 =
2018-12-16 03:00 METAR CYKZ 160300Z 02005KT 15SM BKN220 M00/M01 A3022 RMK CI6 SLP244 =
2018-12-16 02:00 METAR CYKZ 160200Z 03004KT 15SM OVC190 M00/M01 A3024 RMK AC8 SLP249 =
2018-12-16 01:00 METAR CYKZ 160100Z 02002KT 15SM BKN220 00/M01 A3025 RMK CS7 SLP252 =
2018-12-16 00:00 METAR CYKZ 160000Z 02004KT 15SM SCT019 BKN240 01/M01 A3025 RMK SC3CI4 SLP252 =
2018-12-15 23:00 METAR CYKZ 152300Z 03004KT 15SM FEW020 BKN240 01/M00 A3023 RMK SC1CI6 SLP248 =
2018-12-15 22:00 METAR CYKZ 152200Z 03003KT 15SM FEW015 FEW160 BKN250 01/M00 A3023 RMK SC1AC2CI5
                 SC TR SLP246 =
2018-12-15 21:00 METAR CYKZ 152100Z 08006KT 15SM FEW013 BKN160 OVC250 03/00 A3022 RMK SC1AC6CI2
                 SC TR SLP241 =
2018-12-15 20:36 METAR CYKZ 152036Z 07006KT 15SM FEW013 BKN160 OVC250 03/00 A3019 RMK SC1AC7CI1
                 SC TR SLP234 =
2018-12-15 20:00 METAR CYKZ 152000Z 06007KT 050V120 15SM BKN013 OVC020 03/00 A3019 RMK SC7SC1
                 SLP232 =
2018-12-15 19:00 METAR CYKZ 151900Z 11006KT 15SM BKN011 OVC240 03/00 A3020 RMK SC7CI1 SLP235 =
2018-12-15 18:00 METAR CYKZ 151800Z 08006KT 15SM BKN010 BKN014 OVC180 03/01 A3020 RMK SC6SC1AS1
                 SLP235 =
2018-12-15 17:00 METAR CYKZ 151700Z 06005KT 12SM BKN010 OVC250 03/01 A3022 RMK SC7CI1 SLP240 =
2018-12-15 16:25 METAR CYKZ 151625Z 07003KT 020V120 10SM FEW009 OVC010 03/01 A3022 RMK SF1SC8 SF
                 TR SLP244 =
2018-12-15 16:00 METAR CYKZ 151600Z 06004KT 030V130 9SM OVC012 02/01 A3022 RMK SC8 SLP242 =
2018-12-15 15:00 METAR CYKZ 151500Z 00000KT 7SM OVC013 01/01 A3024 RMK SC8 SLP249 =
2018-12-15 14:44 METAR CYKZ 151444Z 00000KT 7SM OVC013 01/01 A3023 RMK SC8 SLP247 =
2018-12-15 14:00 METAR CYKZ 151400Z 21002KT 8SM OVC015 01/01 A3025 RMK SC8 SLP251 =
2018-12-15 13:00 METAR CYKZ 151300Z VRB02KT 7SM BKN015 OVC250 00/M00 A3022 RMK SC7CI1 SLP242 =
2018-12-15 12:00 METAR CYKZ 151200Z VRB02KT 6SM BR BKN012 BKN230 M00/M01 A3024 RMK SC6CI1 FROIN
                 SLP248 =
2018-12-15 11:49 METAR CYKZ 151149Z 00000KT 6SM BR BKN013 BKN240 M00/M01 A3024 RMK SC5CI2 SLP249
                 =
2018-12-15 11:00 METAR CYKZ 151100Z 00000KT 6SM BR BKN240 M01/M01 A3022 RMK CI6 SLP243 =

Support USWX by starting your Amazon purchase here.